Time;durP1;ratioP1;P1;durP2;ratioP2;P2;SDS_P1;SDS_P2;PMS_P1;PMS_P2;Temp;Humidity;BMP_temperature;BMP_pressure;BME280_temperature;BME280_humidity;BME280_pressure;Samples;Min_cycle;Max_cycle;Signal;HPM_P1;HPM_P2
2022/05/22 00:00:07;;;;;;;34.95;14.25;;;;;;;;;;5041958;28;20064;-73
2022/05/22 00:02:33;;;;;;;35.03;14.80;;;;;;;;;;5041590;28;20068;-73
2022/05/22 00:05:00;;;;;;;31.05;15.77;;;;;;;;;;5042956;28;20064;-73
2022/05/22 00:07:26;;;;;;;34.67;14.55;;;;;;;;;;5041439;28;20037;-73
2022/05/22 00:09:52;;;;;;;32.15;15.52;;;;;;;;;;5038575;28;20033;-73
2022/05/22 00:12:18;;;;;;;46.70;17.63;;;;;;;;;;5041450;28;20025;-73
2022/05/22 00:14:44;;;;;;;30.60;15.95;;;;;;;;;;5042160;28;20031;-73
2022/05/22 00:17:11;;;;;;;34.75;16.02;;;;;;;;;;5047105;28;20029;-73
2022/05/22 00:19:38;;;;;;;39.70;17.23;;;;;;;;;;5047849;28;20029;-73
2022/05/22 00:22:05;;;;;;;36.10;16.23;;;;;;;;;;5049056;28;20044;-73
2022/05/22 00:24:31;;;;;;;33.78;16.45;;;;;;;;;;5049882;28;20056;-73
2022/05/22 00:26:58;;;;;;;39.05;16.17;;;;;;;;;;5052074;28;20108;-73
2022/05/22 00:29:24;;;;;;;35.65;16.40;;;;;;;;;;5048602;28;20056;-73
2022/05/22 00:31:50;;;;;;;37.10;17.23;;;;;;;;;;5048731;28;20028;-73
2022/05/22 00:34:17;;;;;;;36.85;16.33;;;;;;;;;;5049574;28;20039;-73
2022/05/22 00:36:43;;;;;;;33.75;17.48;;;;;;;;;;5065009;28;20061;-73
2022/05/22 00:39:09;;;;;;;37.22;17.27;;;;;;;;;;5056228;28;20044;-73
2022/05/22 00:41:36;;;;;;;38.88;16.80;;;;;;;;;;5053777;28;20032;-73
2022/05/22 00:44:04;;;;;;;36.67;16.98;;;;;;;;;;5052458;28;20033;-73
2022/05/22 00:46:30;;;;;;;41.63;17.15;;;;;;;;;;5053451;28;20029;-73
2022/05/22 00:49:01;;;;;;;41.95;17.45;;;;;;;;;;5051444;28;20497;-73
2022/05/22 00:51:41;;;;;;;35.70;15.88;;;;;;;;;;5051542;28;20039;-73
2022/05/22 00:54:09;;;;;;;34.58;17.23;;;;;;;;;;5047451;28;20024;-73
2022/05/22 00:56:39;;;;;;;32.13;17.92;;;;;;;;;;5051147;28;20039;-73
2022/05/22 00:59:08;;;;;;;33.92;16.65;;;;;;;;;;5052915;28;20100;-73
2022/05/22 01:01:34;;;;;;;32.10;17.25;;;;;;;;;;5052775;28;20098;-73
2022/05/22 01:04:00;;;;;;;35.50;17.30;;;;;;;;;;5052434;28;20033;-73
2022/05/22 01:06:27;;;;;;;48.10;18.15;;;;;;;;;;5052356;28;20037;-72
2022/05/22 01:08:54;;;;;;;32.42;17.23;;;;;;;;;;5051911;28;20079;-73
2022/05/22 01:11:22;;;;;;;41.75;17.65;;;;;;;;;;5051836;28;20037;-73
2022/05/22 01:13:56;;;;;;;38.85;18.23;;;;;;;;;;5052658;28;20043;-73
2022/05/22 01:16:22;;;;;;;41.53;18.63;;;;;;;;;;5052601;28;20041;-73
2022/05/22 01:18:50;;;;;;;31.70;17.52;;;;;;;;;;5052672;28;20013;-73
2022/05/22 01:21:18;;;;;;;40.17;20.50;;;;;;;;;;5051901;28;20025;-73
2022/05/22 01:23:45;;;;;;;36.67;18.73;;;;;;;;;;5052755;28;20053;-73
2022/05/22 01:26:11;;;;;;;31.83;18.20;;;;;;;;;;5051830;28;20044;-73
2022/05/22 01:28:37;;;;;;;43.85;18.02;;;;;;;;;;5053827;28;20405;-73
2022/05/22 01:31:04;;;;;;;37.90;17.83;;;;;;;;;;5053978;28;20079;-73
2022/05/22 01:33:30;;;;;;;37.50;17.30;;;;;;;;;;5052345;28;20112;-73
2022/05/22 01:35:56;;;;;;;45.22;17.58;;;;;;;;;;5052510;28;20025;-73
2022/05/22 01:38:22;;;;;;;47.67;16.45;;;;;;;;;;5052791;28;20043;-72
2022/05/22 01:40:49;;;;;;;38.10;16.98;;;;;;;;;;5053367;28;20451;-72
2022/05/22 01:43:15;;;;;;;39.72;17.20;;;;;;;;;;5052475;28;20040;-72
2022/05/22 01:45:42;;;;;;;39.75;17.65;;;;;;;;;;5052538;28;20036;-72
2022/05/22 01:48:10;;;;;;;39.50;17.88;;;;;;;;;;5051839;28;20155;-72
2022/05/22 01:50:36;;;;;;;43.92;18.23;;;;;;;;;;5054025;28;20503;-72
2022/05/22 01:53:03;;;;;;;46.50;17.20;;;;;;;;;;5052441;28;20036;-72
2022/05/22 01:55:29;;;;;;;42.60;17.77;;;;;;;;;;5051758;28;20047;-73
2022/05/22 01:57:55;;;;;;;43.05;16.85;;;;;;;;;;5052733;28;20032;-73
2022/05/22 02:00:23;;;;;;;37.15;17.40;;;;;;;;;;5052412;28;20033;-73
2022/05/22 02:02:49;;;;;;;38.92;16.73;;;;;;;;;;5049497;28;20033;-73
2022/05/22 02:05:16;;;;;;;34.83;16.42;;;;;;;;;;5052725;28;20127;-72
2022/05/22 02:10:29;;;;;;;42.13;17.13;;;;;;;;;;5057340;28;20044;-72
2022/05/22 02:12:55;;;;;;;32.83;16.10;;;;;;;;;;5057713;28;20404;-71
2022/05/22 02:15:21;;;;;;;38.90;16.58;;;;;;;;;;5055552;28;20477;-72
2022/05/22 02:17:47;;;;;;;33.72;16.80;;;;;;;;;;5055301;28;20052;-71
2022/05/22 02:20:13;;;;;;;35.58;16.95;;;;;;;;;;5055355;28;20039;-72
2022/05/22 02:22:40;;;;;;;35.92;17.13;;;;;;;;;;5055324;28;20024;-71
2022/05/22 02:25:07;;;;;;;34.03;17.42;;;;;;;;;;5055409;28;20469;-72
2022/05/22 02:27:33;;;;;;;40.88;18.30;;;;;;;;;;5055534;28;20047;-72
2022/05/22 02:30:00;;;;;;;39.05;17.88;;;;;;;;;;5054559;28;20033;-71
2022/05/22 02:32:27;;;;;;;38.47;18.70;;;;;;;;;;5055402;28;20033;-71
2022/05/22 02:34:53;;;;;;;34.03;17.73;;;;;;;;;;5054604;28;20028;-71
2022/05/22 02:37:20;;;;;;;41.05;19.60;;;;;;;;;;5056633;28;20115;-71
2022/05/22 02:39:46;;;;;;;38.92;17.75;;;;;;;;;;5055833;28;20535;-73
2022/05/22 02:42:12;;;;;;;37.20;18.73;;;;;;;;;;5054370;28;20028;-73
2022/05/22 02:44:38;;;;;;;47.58;20.42;;;;;;;;;;5054889;28;20094;-73
2022/05/22 02:47:05;;;;;;;34.25;18.65;;;;;;;;;;5056527;28;20033;-73
2022/05/22 02:49:33;;;;;;;37.45;18.52;;;;;;;;;;5055165;28;20569;-73
2022/05/22 02:52:00;;;;;;;40.47;20.10;;;;;;;;;;5056855;28;20201;-73
2022/05/22 02:54:26;;;;;;;44.25;19.95;;;;;;;;;;5054982;28;20028;-73
2022/05/22 02:56:52;;;;;;;41.95;20.52;;;;;;;;;;5054380;28;20033;-73
2022/05/22 02:59:18;;;;;;;38.90;19.85;;;;;;;;;;5054743;28;20556;-73
2022/05/22 03:01:45;;;;;;;39.65;19.52;;;;;;;;;;5053475;28;20033;-73
2022/05/22 03:04:11;;;;;;;36.88;20.27;;;;;;;;;;5054664;28;20162;-73
2022/05/22 03:06:40;;;;;;;37.55;20.15;;;;;;;;;;5055274;28;20089;-73
2022/05/22 03:09:07;;;;;;;41.20;21.20;;;;;;;;;;5049644;28;20142;-73
2022/05/22 03:11:33;;;;;;;40.75;19.85;;;;;;;;;;5054956;28;20029;-73
2022/05/22 03:13:59;;;;;;;37.40;19.48;;;;;;;;;;5053031;28;20396;-73
2022/05/22 03:16:25;;;;;;;44.80;22.15;;;;;;;;;;5055839;28;20485;-73
2022/05/22 03:18:51;;;;;;;43.33;20.90;;;;;;;;;;5054235;28;20037;-72
2022/05/22 03:21:17;;;;;;;42.10;19.60;;;;;;;;;;5053686;28;20025;-73
2022/05/22 03:23:43;;;;;;;41.00;20.33;;;;;;;;;;5054082;28;20039;-73
2022/05/22 03:26:10;;;;;;;38.03;20.45;;;;;;;;;;5054122;28;20047;-73
2022/05/22 03:28:36;;;;;;;45.70;20.63;;;;;;;;;;5053592;28;20048;-73
2022/05/22 03:31:02;;;;;;;39.83;20.00;;;;;;;;;;5056154;28;20485;-73
2022/05/22 03:33:29;;;;;;;48.42;20.70;;;;;;;;;;5054396;28;20028;-73
2022/05/22 03:35:55;;;;;;;41.38;21.08;;;;;;;;;;5053204;28;20048;-73
2022/05/22 03:38:21;;;;;;;42.90;21.67;;;;;;;;;;5053443;28;20087;-73
2022/05/22 03:40:47;;;;;;;45.05;23.38;;;;;;;;;;5053903;28;20567;-73
2022/05/22 03:43:17;;;;;;;48.38;23.35;;;;;;;;;;5054335;28;20524;-73
2022/05/22 03:45:44;;;;;;;45.15;23.10;;;;;;;;;;5053971;28;20045;-73
2022/05/22 03:48:10;;;;;;;50.75;25.02;;;;;;;;;;5053416;28;20032;-73
2022/05/22 03:50:36;;;;;;;45.30;24.63;;;;;;;;;;5053407;28;20029;-73
2022/05/22 03:53:03;;;;;;;48.30;24.23;;;;;;;;;;5054378;28;20033;-73
2022/05/22 03:55:29;;;;;;;57.50;23.83;;;;;;;;;;5055332;28;20033;-73
2022/05/22 03:57:56;;;;;;;54.58;27.00;;;;;;;;;;5053674;28;20166;-73
2022/05/22 04:00:24;;;;;;;53.88;27.52;;;;;;;;;;5054129;28;20036;-73
2022/05/22 04:02:51;;;;;;;54.67;29.33;;;;;;;;;;5051236;28;20039;-73
2022/05/22 04:05:17;;;;;;;55.42;30.33;;;;;;;;;;5054271;28;20047;-73
2022/05/22 04:07:45;;;;;;;57.97;29.25;;;;;;;;;;5053756;28;20033;-73
2022/05/22 04:10:13;;;;;;;59.08;28.42;;;;;;;;;;5053629;28;20438;-73
2022/05/22 04:12:39;;;;;;;65.88;29.55;;;;;;;;;;5052075;28;20028;-73
2022/05/22 04:15:08;;;;;;;55.83;27.88;;;;;;;;;;5053243;28;20025;-73
2022/05/22 04:17:34;;;;;;;59.03;31.05;;;;;;;;;;5055170;28;20033;-73
2022/05/22 04:20:01;;;;;;;65.13;32.35;;;;;;;;;;5052813;28;20464;-73
2022/05/22 04:22:27;;;;;;;60.10;31.60;;;;;;;;;;5053335;28;20432;-73
2022/05/22 04:25:11;;;;;;;50.95;28.67;;;;;;;;;;5052981;28;20120;-73
2022/05/22 04:27:41;;;;;;;49.22;25.35;;;;;;;;;;5051589;28;20033;-73
2022/05/22 04:30:09;;;;;;;57.35;26.08;;;;;;;;;;5047437;28;20505;-73
2022/05/22 04:32:35;;;;;;;47.72;23.13;;;;;;;;;;5054691;28;20044;-73
2022/05/22 04:35:01;;;;;;;48.63;20.73;;;;;;;;;;5054631;28;20096;-73
2022/05/22 04:37:27;;;;;;;35.10;19.25;;;;;;;;;;5053200;28;20040;-73
2022/05/22 04:39:53;;;;;;;32.80;17.83;;;;;;;;;;5053400;28;20029;-71
2022/05/22 04:42:19;;;;;;;31.25;17.85;;;;;;;;;;5052653;28;20392;-71
2022/05/22 04:44:45;;;;;;;26.65;16.25;;;;;;;;;;5052972;28;20033;-71
2022/05/22 04:47:11;;;;;;;25.38;14.50;;;;;;;;;;5053104;28;20071;-71
2022/05/22 04:49:37;;;;;;;24.13;15.93;;;;;;;;;;5054173;28;20025;-71
2022/05/22 04:52:04;;;;;;;25.95;15.98;;;;;;;;;;5052803;28;20105;-71
2022/05/22 04:54:30;;;;;;;32.92;17.38;;;;;;;;;;5053078;28;20071;-72
2022/05/22 04:56:56;;;;;;;33.20;18.17;;;;;;;;;;5052617;28;20025;-71
2022/05/22 04:59:23;;;;;;;35.05;18.70;;;;;;;;;;5052661;28;20120;-72
2022/05/22 05:01:49;;;;;;;38.05;20.08;;;;;;;;;;5052190;28;20028;-71
2022/05/22 05:04:15;;;;;;;37.78;18.88;;;;;;;;;;5052385;28;20451;-70
2022/05/22 05:06:41;;;;;;;41.42;19.65;;;;;;;;;;5052702;28;20459;-71
2022/05/22 05:09:07;;;;;;;30.70;19.30;;;;;;;;;;5052041;28;20493;-71
2022/05/22 05:11:34;;;;;;;38.88;19.83;;;;;;;;;;5052761;28;20404;-71
2022/05/22 05:14:00;;;;;;;43.42;20.88;;;;;;;;;;5052638;28;20116;-71
2022/05/22 05:16:26;;;;;;;38.92;19.60;;;;;;;;;;5052958;28;20485;-71
2022/05/22 05:18:52;;;;;;;53.15;21.88;;;;;;;;;;5052596;28;20037;-71
2022/05/22 05:21:19;;;;;;;43.33;22.90;;;;;;;;;;5051779;28;20017;-70
2022/05/22 05:23:45;;;;;;;40.00;21.25;;;;;;;;;;5054171;28;20025;-71
2022/05/22 05:26:11;;;;;;;46.53;21.80;;;;;;;;;;5053622;28;20049;-71
2022/05/22 05:28:37;;;;;;;49.38;22.98;;;;;;;;;;5053836;28;20491;-71
2022/05/22 05:31:04;;;;;;;41.65;20.80;;;;;;;;;;5052708;28;20037;-71
2022/05/22 05:33:33;;;;;;;42.45;20.55;;;;;;;;;;5051303;28;20067;-71
2022/05/22 05:36:00;;;;;;;42.88;18.45;;;;;;;;;;5051177;28;20020;-72
2022/05/22 05:38:27;;;;;;;44.28;19.67;;;;;;;;;;5052752;28;20516;-72
2022/05/22 05:40:53;;;;;;;33.08;18.02;;;;;;;;;;5054602;28;20021;-71
2022/05/22 05:43:19;;;;;;;47.65;19.40;;;;;;;;;;5056378;28;20065;-71
2022/05/22 05:45:45;;;;;;;35.65;17.80;;;;;;;;;;5056282;28;20043;-71
2022/05/22 05:48:11;;;;;;;34.65;17.55;;;;;;;;;;5055001;28;20033;-71
2022/05/22 05:50:38;;;;;;;38.67;18.27;;;;;;;;;;5056297;28;20028;-71
2022/05/22 05:53:04;;;;;;;31.48;18.83;;;;;;;;;;5057480;28;20158;-71
2022/05/22 05:55:30;;;;;;;38.28;18.77;;;;;;;;;;5055612;28;20042;-71
2022/05/22 05:57:56;;;;;;;38.78;17.77;;;;;;;;;;5056113;28;20025;-71
2022/05/22 06:00:24;;;;;;;39.65;18.00;;;;;;;;;;5055352;28;20370;-71
2022/05/22 06:02:50;;;;;;;41.47;17.75;;;;;;;;;;5052658;28;20029;-72
2022/05/22 06:05:17;;;;;;;39.20;18.85;;;;;;;;;;5057559;28;20068;-72
2022/05/22 06:07:43;;;;;;;37.40;17.73;;;;;;;;;;5054882;28;20025;-71
2022/05/22 06:10:11;;;;;;;37.20;18.63;;;;;;;;;;5055940;28;20112;-71
2022/05/22 06:12:37;;;;;;;44.78;18.45;;;;;;;;;;5039367;28;20034;-71
2022/05/22 06:15:04;;;;;;;36.83;17.83;;;;;;;;;;5055396;28;20029;-71
2022/05/22 06:17:34;;;;;;;43.00;19.60;;;;;;;;;;5055320;28;20041;-71
2022/05/22 06:20:01;;;;;;;36.83;17.73;;;;;;;;;;5054257;28;20033;-75
2022/05/22 06:22:28;;;;;;;46.08;20.10;;;;;;;;;;5056044;28;20062;-74
2022/05/22 06:24:54;;;;;;;44.53;18.13;;;;;;;;;;5055662;28;20060;-75
2022/05/22 06:27:21;;;;;;;43.25;18.95;;;;;;;;;;5054795;28;20033;-74
2022/05/22 06:29:47;;;;;;;35.83;17.10;;;;;;;;;;5054111;28;20083;-72
2022/05/22 06:32:15;;;;;;;37.85;16.80;;;;;;;;;;5055394;28;20108;-74
2022/05/22 06:34:41;;;;;;;49.13;18.55;;;;;;;;;;5056212;28;20060;-75
2022/05/22 06:37:10;;;;;;;36.95;18.80;;;;;;;;;;5072786;23;20057;-80
2022/05/22 06:39:49;;;;;;;44.92;18.42;;;;;;;;;;5063812;23;20057;-74
2022/05/22 06:42:16;;;;;;;33.15;16.80;;;;;;;;;;5059081;28;20488;-75
2022/05/22 06:44:43;;;;;;;37.28;16.55;;;;;;;;;;5054841;28;20029;-75
2022/05/22 06:47:09;;;;;;;32.33;16.48;;;;;;;;;;5056405;28;20029;-74
2022/05/22 06:49:35;;;;;;;38.80;16.58;;;;;;;;;;5055522;28;20035;-74
2022/05/22 06:52:02;;;;;;;36.28;17.27;;;;;;;;;;5058988;28;20033;-75
2022/05/22 06:54:31;;;;;;;43.13;16.27;;;;;;;;;;5055834;28;20032;-73
2022/05/22 06:56:57;;;;;;;37.17;16.52;;;;;;;;;;5054661;28;20496;-74
2022/05/22 06:59:24;;;;;;;45.15;17.13;;;;;;;;;;5054711;28;20207;-75
2022/05/22 07:01:50;;;;;;;52.53;16.88;;;;;;;;;;5055210;28;20032;-74
2022/05/22 07:04:20;;;;;;;33.00;16.20;;;;;;;;;;5082392;22;20056;-75
2022/05/22 07:06:46;;;;;;;39.10;15.48;;;;;;;;;;5054410;28;20493;-80
2022/05/22 07:09:12;;;;;;;35.63;15.88;;;;;;;;;;5054231;28;20017;-83
2022/05/22 07:11:38;;;;;;;36.05;16.40;;;;;;;;;;5061156;28;20041;-85
2022/05/22 07:14:05;;;;;;;39.22;15.88;;;;;;;;;;5049642;28;20107;-82
2022/05/22 07:16:31;;;;;;;38.47;16.83;;;;;;;;;;5054364;28;20036;-84
2022/05/22 07:18:58;;;;;;;38.00;16.98;;;;;;;;;;5057049;28;20024;-82
2022/05/22 07:21:27;;;;;;;36.13;17.65;;;;;;;;;;5054183;28;20397;-81
2022/05/22 07:23:53;;;;;;;40.97;16.80;;;;;;;;;;5052129;28;20025;-81
2022/05/22 07:26:21;;;;;;;40.95;18.70;;;;;;;;;;5054178;28;20198;-85
2022/05/22 07:28:47;;;;;;;39.28;18.58;;;;;;;;;;5052007;28;20040;-80
2022/05/22 07:31:14;;;;;;;39.90;18.52;;;;;;;;;;5054149;28;20086;-82
2022/05/22 07:33:40;;;;;;;43.78;19.10;;;;;;;;;;5053670;28;20040;-84
2022/05/22 07:36:06;;;;;;;47.13;18.83;;;;;;;;;;5052656;28;20032;-82
2022/05/22 07:38:33;;;;;;;31.75;17.15;;;;;;;;;;5053408;28;20025;-76
2022/05/22 07:40:59;;;;;;;38.20;18.00;;;;;;;;;;5052664;28;20029;-77
2022/05/22 07:43:25;;;;;;;43.00;17.70;;;;;;;;;;5053201;28;20036;-76
2022/05/22 07:45:51;;;;;;;44.95;18.13;;;;;;;;;;5053706;28;20524;-76
2022/05/22 07:48:18;;;;;;;39.78;17.58;;;;;;;;;;5052952;28;20025;-73
2022/05/22 07:50:44;;;;;;;49.60;19.75;;;;;;;;;;5053214;28;20103;-81
2022/05/22 07:53:10;;;;;;;44.50;20.65;;;;;;;;;;5048968;28;20021;-84
2022/05/22 07:55:37;;;;;;;43.45;19.98;;;;;;;;;;5047177;28;20029;-75
2022/05/22 07:58:03;;;;;;;43.55;19.05;;;;;;;;;;5046980;28;20128;-80
2022/05/22 08:00:29;;;;;;;40.08;20.38;;;;;;;;;;5049200;28;20028;-88
2022/05/22 08:02:56;;;;;;;43.90;18.38;;;;;;;;;;5051116;28;20083;-83
2022/05/22 08:05:22;;;;;;;46.13;19.63;;;;;;;;;;5049341;28;20468;-88
2022/05/22 08:07:49;;;;;;;41.38;19.10;;;;;;;;;;5047549;28;20470;-87
2022/05/22 08:10:16;;;;;;;42.92;19.50;;;;;;;;;;5046690;28;20043;-88
2022/05/22 08:12:43;;;;;;;38.13;21.13;;;;;;;;;;5047926;28;20059;-88
2022/05/22 08:15:10;;;;;;;38.42;19.33;;;;;;;;;;5052372;28;20047;-89
2022/05/22 08:17:36;;;;;;;43.42;20.52;;;;;;;;;;5041597;28;20021;-77
2022/05/22 08:20:08;;;;;;;51.58;21.48;;;;;;;;;;5045883;28;20505;-78
2022/05/22 08:22:34;;;;;;;38.92;20.55;;;;;;;;;;5046994;28;20029;-81
2022/05/22 08:25:01;;;;;;;50.38;21.50;;;;;;;;;;5045356;28;20543;-84
2022/05/22 08:27:27;;;;;;;41.65;18.92;;;;;;;;;;5046557;28;20533;-85
2022/05/22 08:29:54;;;;;;;49.95;20.45;;;;;;;;;;5061538;28;20119;-85
2022/05/22 08:32:20;;;;;;;36.25;17.30;;;;;;;;;;5035529;28;20124;-85
2022/05/22 08:34:46;;;;;;;35.00;18.42;;;;;;;;;;5037074;28;20410;-85
2022/05/22 08:37:13;;;;;;;30.42;16.88;;;;;;;;;;5046903;28;20123;-84
2022/05/22 08:39:39;;;;;;;40.55;18.65;;;;;;;;;;5041426;28;20087;-84
2022/05/22 08:42:09;;;;;;;39.80;18.00;;;;;;;;;;5049694;28;20043;-85
2022/05/22 08:44:36;;;;;;;26.83;15.43;;;;;;;;;;5041865;28;20037;-84
2022/05/22 08:47:12;;;;;;;26.90;15.02;;;;;;;;;;5040819;28;20060;-84
2022/05/22 08:49:44;;;;;;;28.60;15.77;;;;;;;;;;5040711;28;20033;-84
2022/05/22 08:52:32;;;;;;;33.45;17.73;;;;;;;;;;5032563;28;20036;-84
2022/05/22 08:55:05;;;;;;;40.47;17.40;;;;;;;;;;5030592;28;20517;-85
2022/05/22 09:00:22;;;;;;;41.65;19.60;;;;;;;;;;5044771;28;20091;-85
2022/05/22 09:02:59;;;;;;;40.88;20.17;;;;;;;;;;5032413;28;20549;-85
2022/05/22 09:05:26;;;;;;;51.33;21.65;;;;;;;;;;5032840;28;20123;-85
2022/05/22 09:07:58;;;;;;;49.40;22.88;;;;;;;;;;5033433;28;20030;-85
2022/05/22 09:10:30;;;;;;;56.10;22.13;;;;;;;;;;5032873;28;20040;-85
2022/05/22 09:12:59;;;;;;;46.40;23.58;;;;;;;;;;5030396;28;20033;-85
2022/05/22 09:15:46;;;;;;;49.35;22.65;;;;;;;;;;5039592;28;20029;-85
2022/05/22 09:18:24;;;;;;;43.00;21.33;;;;;;;;;;5047735;28;20044;-85
2022/05/22 09:20:50;;;;;;;52.10;22.10;;;;;;;;;;5045983;28;20037;-85
2022/05/22 09:23:25;;;;;;;48.55;23.30;;;;;;;;;;5039062;28;20041;-86
2022/05/22 09:26:01;;;;;;;44.92;20.27;;;;;;;;;;5041866;28;20048;-85
2022/05/22 09:28:42;;;;;;;46.75;20.63;;;;;;;;;;5036420;28;20115;-85
2022/05/22 09:31:13;;;;;;;42.58;19.30;;;;;;;;;;5036110;28;20037;-85
2022/05/22 09:33:58;;;;;;;40.45;19.33;;;;;;;;;;5032244;28;20033;-87
2022/05/22 09:36:38;;;;;;;47.25;19.67;;;;;;;;;;5048018;28;20082;-87
2022/05/22 09:39:10;;;;;;;35.10;17.77;;;;;;;;;;5046384;28;20597;-87
2022/05/22 09:41:46;;;;;;;42.63;17.83;;;;;;;;;;5048138;28;20040;-86
2022/05/22 09:44:21;;;;;;;39.63;16.90;;;;;;;;;;5039498;28;20037;-87
2022/05/22 09:47:05;;;;;;;36.15;16.67;;;;;;;;;;5038652;28;20427;-87
2022/05/22 09:49:41;;;;;;;33.17;15.60;;;;;;;;;;5044955;28;20163;-86
2022/05/22 09:52:10;;;;;;;38.95;16.63;;;;;;;;;;5046953;28;20037;-87
2022/05/22 09:55:09;;;;;;;32.60;15.40;;;;;;;;;;5032269;28;20025;-87
2022/05/22 09:57:58;;;;;;;36.95;15.38;;;;;;;;;;4969983;28;20045;-87
2022/05/22 10:00:39;;;;;;;36.65;16.38;;;;;;;;;;4949940;28;20082;-87
2022/05/22 10:03:09;;;;;;;30.13;14.27;;;;;;;;;;4951453;29;20126;-86
2022/05/22 10:05:35;;;;;;;35.50;15.27;;;;;;;;;;4946124;29;20134;-86
2022/05/22 10:08:01;;;;;;;30.45;14.38;;;;;;;;;;4948774;29;20527;-87
2022/05/22 10:10:45;;;;;;;26.55;12.55;;;;;;;;;;4949270;28;20580;-84
2022/05/22 10:13:11;;;;;;;;;;;;;;;;;;4949815;29;20051;-82
2022/05/22 10:15:37;;;;;;;30.00;14.23;;;;;;;;;;4945585;29;20413;-84
2022/05/22 10:18:12;;;;;;;27.88;14.05;;;;;;;;;;4953327;29;20557;-84
2022/05/22 10:20:38;;;;;;;32.00;14.85;;;;;;;;;;4951915;29;20039;-82
2022/05/22 10:23:16;;;;;;;30.38;15.45;;;;;;;;;;4949658;29;20027;-82
2022/05/22 10:26:01;;;;;;;30.27;15.38;;;;;;;;;;4951885;28;20137;-86
2022/05/22 10:28:36;;;;;;;36.58;16.65;;;;;;;;;;4951896;29;20035;-83
2022/05/22 10:31:25;;;;;;;35.33;15.55;;;;;;;;;;4952370;28;20138;-78
2022/05/22 10:33:55;;;;;;;29.92;15.27;;;;;;;;;;4977016;28;20038;-78
2022/05/22 10:36:23;;;;;;;33.35;13.52;;;;;;;;;;5010229;28;20084;-86
2022/05/22 10:39:01;;;;;;;38.13;14.90;;;;;;;;;;5037663;28;20135;-81
2022/05/22 10:44:17;;;;;;;30.95;13.55;;;;;;;;;;5038047;28;20548;-82
2022/05/22 10:46:53;;;;;;;37.17;13.73;;;;;;;;;;5042595;28;20041;-81
2022/05/22 10:49:21;;;;;;;33.70;13.38;;;;;;;;;;5037648;28;20033;-79
2022/05/22 10:51:55;;;;;;;38.00;12.90;;;;;;;;;;5033930;28;20021;-80
2022/05/22 10:54:25;;;;;;;27.27;11.77;;;;;;;;;;5038402;28;20112;-79
2022/05/22 10:56:52;;;;;;;30.27;12.00;;;;;;;;;;5051113;28;20025;-79
2022/05/22 10:59:22;;;;;;;27.17;12.13;;;;;;;;;;5048715;28;20504;-80
2022/05/22 11:01:57;;;;;;;25.15;12.32;;;;;;;;;;5050313;28;20025;-81
2022/05/22 11:04:33;;;;;;;29.85;12.65;;;;;;;;;;5048781;28;20071;-78
2022/05/22 11:07:01;;;;;;;32.63;12.95;;;;;;;;;;5065476;22;20041;-74
2022/05/22 11:09:34;;;;;;;33.90;15.23;;;;;;;;;;5049754;28;20039;-75
2022/05/22 11:12:11;;;;;;;33.45;13.75;;;;;;;;;;5052373;28;20081;-71
2022/05/22 11:14:37;;;;;;;35.03;13.32;;;;;;;;;;5051413;28;20056;-72
2022/05/22 11:17:08;;;;;;;37.55;13.32;;;;;;;;;;5048777;28;20032;-73
2022/05/22 11:19:37;;;;;;;30.75;12.98;;;;;;;;;;5050182;28;20036;-73
2022/05/22 11:22:09;;;;;;;31.90;13.98;;;;;;;;;;5048124;28;20501;-72
2022/05/22 11:24:47;;;;;;;38.58;14.85;;;;;;;;;;5049305;28;20041;-74
2022/05/22 11:27:16;;;;;;;30.08;14.40;;;;;;;;;;5047898;28;20025;-74
2022/05/22 11:29:53;;;;;;;38.58;14.40;;;;;;;;;;5050258;28;20021;-72
2022/05/22 11:32:40;;;;;;;34.40;13.75;;;;;;;;;;5048399;28;20032;-83
2022/05/22 11:35:06;;;;;;;32.92;12.95;;;;;;;;;;5047989;28;20055;-77
2022/05/22 11:37:32;;;;;;;30.17;13.50;;;;;;;;;;5049002;28;20401;-77
2022/05/22 11:40:08;;;;;;;36.90;15.55;;;;;;;;;;5048186;28;20025;-84
2022/05/22 11:42:35;;;;;;;34.30;14.05;;;;;;;;;;5049725;28;20021;-83
2022/05/22 11:45:14;;;;;;;34.55;13.52;;;;;;;;;;5049872;28;20394;-82
2022/05/22 11:47:59;;;;;;;30.58;13.35;;;;;;;;;;5042982;28;20029;-79
2022/05/22 11:50:25;;;;;;;31.25;14.05;;;;;;;;;;5034146;28;20490;-79
2022/05/22 11:52:57;;;;;;;33.00;13.65;;;;;;;;;;5034229;28;20025;-79
2022/05/22 11:55:26;;;;;;;32.03;14.10;;;;;;;;;;5033987;28;20036;-80
2022/05/22 11:57:52;;;;;;;33.85;14.63;;;;;;;;;;5031003;28;20037;-79
2022/05/22 12:00:23;;;;;;;37.50;15.15;;;;;;;;;;5032258;28;20021;-79
2022/05/22 12:02:54;;;;;;;29.38;14.60;;;;;;;;;;5033056;28;20032;-78
2022/05/22 12:05:22;;;;;;;36.10;15.32;;;;;;;;;;5046640;28;20045;-77
2022/05/22 12:08:11;;;;;;;33.75;15.70;;;;;;;;;;5040399;28;20556;-76
2022/05/22 12:10:42;;;;;;;33.88;16.15;;;;;;;;;;5032731;28;20029;-79
2022/05/22 12:13:27;;;;;;;31.92;14.82;;;;;;;;;;5034414;28;20041;-79
2022/05/22 12:15:59;;;;;;;29.40;15.48;;;;;;;;;;5031198;28;20029;-74
2022/05/22 12:18:44;;;;;;;33.38;15.68;;;;;;;;;;5029195;28;20025;-76
2022/05/22 12:21:13;;;;;;;37.70;15.45;;;;;;;;;;5029058;28;20081;-78
2022/05/22 12:24:01;;;;;;;31.95;13.80;;;;;;;;;;5042187;28;20029;-77
2022/05/22 12:26:30;;;;;;;35.40;16.48;;;;;;;;;;5032851;28;20556;-74
2022/05/22 12:29:03;;;;;;;38.35;14.85;;;;;;;;;;5039138;28;20055;-75
2022/05/22 12:31:36;;;;;;;41.10;16.00;;;;;;;;;;5044418;28;20095;-74
2022/05/22 12:34:06;;;;;;;32.05;14.35;;;;;;;;;;5046287;28;20033;-74
2022/05/22 12:36:33;;;;;;;41.00;14.73;;;;;;;;;;5046619;28;20033;-74
2022/05/22 12:39:05;;;;;;;38.80;14.60;;;;;;;;;;5047661;28;20037;-74
2022/05/22 12:41:46;;;;;;;42.10;15.10;;;;;;;;;;5045112;28;20033;-74
2022/05/22 12:44:13;;;;;;;37.80;14.15;;;;;;;;;;5044431;28;20473;-74
2022/05/22 12:46:39;;;;;;;27.80;14.57;;;;;;;;;;5045669;28;20041;-74
2022/05/22 12:49:25;;;;;;;35.72;15.25;;;;;;;;;;5044775;28;20029;-74
2022/05/22 12:52:06;;;;;;;35.00;14.82;;;;;;;;;;5030182;28;20048;-74
2022/05/22 12:54:37;;;;;;;34.00;14.55;;;;;;;;;;5046124;28;20048;-75
2022/05/22 12:57:22;;;;;;;27.10;14.10;;;;;;;;;;5047453;28;20024;-75
2022/05/22 12:59:59;;;;;;;31.92;13.57;;;;;;;;;;5047462;28;20037;-75
2022/05/22 13:02:34;;;;;;;39.45;14.50;;;;;;;;;;5043971;28;20025;-74
2022/05/22 13:05:01;;;;;;;29.20;14.40;;;;;;;;;;5044532;28;20513;-74
2022/05/22 13:07:33;;;;;;;31.35;13.80;;;;;;;;;;5048089;22;20041;-69
2022/05/22 13:10:00;;;;;;;30.45;14.18;;;;;;;;;;5022374;28;20797;-70
2022/05/22 13:12:28;;;;;;;35.05;14.10;;;;;;;;;;5022681;28;20106;-71
2022/05/22 13:15:04;;;;;;;33.15;14.57;;;;;;;;;;5026088;28;20470;-70
2022/05/22 13:17:59;;;;;;;36.33;14.00;;;;;;;;;;5025466;28;20033;-71
2022/05/22 13:20:25;;;;;;;37.72;14.52;;;;;;;;;;5017889;28;20040;-71
2022/05/22 13:23:01;;;;;;;30.42;13.18;;;;;;;;;;5025759;28;20683;-71
2022/05/22 13:25:29;;;;;;;24.08;13.48;;;;;;;;;;5023326;28;20072;-71
2022/05/22 13:27:56;;;;;;;27.98;13.30;;;;;;;;;;5025910;28;20071;-70
2022/05/22 13:30:30;;;;;;;32.95;13.95;;;;;;;;;;5026915;28;20025;-71
2022/05/22 13:32:58;;;;;;;33.65;13.30;;;;;;;;;;5026556;28;20117;-73
2022/05/22 13:35:26;;;;;;;27.42;13.13;;;;;;;;;;5025420;28;20037;-71
2022/05/22 13:37:53;;;;;;;31.77;13.70;;;;;;;;;;5025767;28;20522;-71
2022/05/22 13:40:46;;;;;;;26.70;12.95;;;;;;;;;;5025010;28;20068;-71
2022/05/22 13:43:30;;;;;;;34.15;14.18;;;;;;;;;;4946743;29;20058;-71
2022/05/22 13:46:15;;;;;;;31.30;13.88;;;;;;;;;;4946226;29;20202;-70
2022/05/22 13:48:47;;;;;;;29.13;12.60;;;;;;;;;;4931650;29;20039;-71
2022/05/22 13:54:25;;;;;;;27.10;12.63;;;;;;;;;;4930635;29;20039;-70
2022/05/22 13:56:54;;;;;;;28.85;13.32;;;;;;;;;;4933669;29;20035;-71
2022/05/22 13:59:25;;;;;;;31.88;13.70;;;;;;;;;;4934568;29;20046;-71
2022/05/22 14:01:52;;;;;;;29.00;13.25;;;;;;;;;;4935276;29;20048;-71
2022/05/22 14:04:18;;;;;;;34.17;13.15;;;;;;;;;;4939285;29;20079;-71
2022/05/22 14:06:48;;;;;;;33.08;13.45;;;;;;;;;;4934379;29;20057;-70
2022/05/22 14:09:30;;;;;;;30.13;13.95;;;;;;;;;;4935734;29;20064;-71
2022/05/22 14:11:57;;;;;;;34.97;14.02;;;;;;;;;;4925233;29;20043;-71
2022/05/22 14:14:31;;;;;;;29.60;13.35;;;;;;;;;;4940835;29;20091;-72
2022/05/22 14:17:02;;;;;;;34.95;12.40;;;;;;;;;;4939256;29;20050;-72
2022/05/22 14:19:48;;;;;;;33.35;13.25;;;;;;;;;;4965308;28;20049;-73
2022/05/22 14:22:20;;;;;;;31.80;13.27;;;;;;;;;;5033426;28;20120;-72
2022/05/22 14:24:59;;;;;;;31.67;12.03;;;;;;;;;;5020667;28;20090;-72
2022/05/22 14:27:29;;;;;;;31.55;13.32;;;;;;;;;;5034438;28;20018;-71
2022/05/22 14:30:15;;;;;;;29.83;13.02;;;;;;;;;;5032223;28;20026;-70
2022/05/22 14:32:42;;;;;;;28.83;12.10;;;;;;;;;;5046099;28;20029;-74
2022/05/22 14:35:14;;;;;;;27.13;12.10;;;;;;;;;;5034986;28;20069;-73
2022/05/22 14:37:41;;;;;;;30.88;12.13;;;;;;;;;;5034833;28;20098;-78
2022/05/22 14:40:34;;;;;;;32.63;13.50;;;;;;;;;;5033885;28;20025;-75
2022/05/22 14:43:02;;;;;;;32.88;12.25;;;;;;;;;;5019248;28;20043;-74